Huvudsida
METAR-TAF:

METAR-TAF

Flygplatser :

Lycksele, Sverige

Lycksele flygplats

latitud: 64-32-51N, longitud: 018-43-03E, höjd: 211 m

Aktuellt väderrapport

Denna rapport gjordes för 33 minuter sedan, klockan 02:50 UTC
Stilla vind
Temperatur -14°C
Fuktighet 85%
Tryck 1000 hPa
Sikt: 2600 m
lätt snö

METAR: ESNL 190250Z AUTO 00000KT 2600 -SN BKN021/// BKN029/// M14/M16 Q1000

Tid: 04:23 (03:23 UTC)


TAF: saknas

Aktuella väderrapporter och prognoser från 4000 flygplatser (METAR- och TAF-rapporter).

De tillgängliga stationerna syns som gula och röda prickar på kartan.

För musen över prickarna för att se namnen på stationerna.

Klicka sedan för att få väderrapporter och prognoser.

För att ändra kartan: Klicka på de gröna knapparna med ett svart kors på för att zooma in; den gröna knappen med ett streck på för att zooma ut; eller på de gröna pilarna för angränsande kartor.


METAR-TAF: